Time;durP1;ratioP1;P1;durP2;ratioP2;P2;SDS_P1;SDS_P2;PMS_P1;PMS_P2;Temp;Humidity;BMP_temperature;BMP_pressure;BME280_temperature;BME280_humidity;BME280_pressure;Samples;Min_cycle;Max_cycle;Signal;HPM_P1;HPM_P2
2021/11/17 02:28:09;;;;;;;69.10;27.77;;;5.60;99.90;;;;;;5024909;28;20418;-65
2021/11/17 02:30:48;;;;;;;68.80;28.23;;;5.70;99.90;;;;;;4999053;28;20391;-65
2021/11/17 02:33:39;;;;;;;73.40;29.13;;;5.60;99.90;;;;;;5022725;28;20037;-65
2021/11/17 02:36:30;;;;;;;66.80;28.00;;;5.70;99.90;;;;;;5002250;28;20048;-65
2021/11/17 02:39:17;;;;;;;72.07;28.52;;;5.70;99.90;;;;;;5022242;28;20383;-65
2021/11/17 02:41:59;;;;;;;66.10;26.98;;;5.70;99.90;;;;;;5017776;28;20447;-65
2021/11/17 02:45:00;;;;;;;71.93;28.77;;;5.70;99.90;;;;;;5025587;28;20048;-65
2021/11/17 02:47:35;;;;;;;73.80;28.95;;;5.70;99.90;;;;;;5010116;28;20060;-66
2021/11/17 02:50:12;;;;;;;;;;;5.70;99.90;;;;;;5023977;28;20164;-65
2021/11/17 02:53:16;;;;;;;74.15;26.90;;;5.70;99.90;;;;;;5017056;28;19917;-65
2021/11/17 02:55:48;;;;;;;74.28;28.20;;;5.80;99.90;;;;;;5023551;28;20061;-65
2021/11/17 02:58:28;;;;;;;72.32;29.75;;;5.80;99.90;;;;;;5000827;28;20034;-66
2021/11/17 03:01:14;;;;;;;68.13;29.08;;;5.80;99.90;;;;;;5024471;28;20044;-65
2021/11/17 03:04:11;;;;;;;74.32;30.50;;;5.80;99.90;;;;;;5017828;28;20057;-65
2021/11/17 03:07:12;;;;;;;66.05;28.35;;;5.90;99.90;;;;;;5021738;28;20048;-65
2021/11/17 03:09:50;;;;;;;78.95;29.67;;;5.90;99.90;;;;;;4975885;28;20049;-66
2021/11/17 03:12:40;;;;;;;76.82;30.25;;;5.90;99.90;;;;;;5018883;28;20465;-65
2021/11/17 03:15:15;;;;;;;72.60;29.45;;;5.80;99.90;;;;;;5005839;28;20073;-65
2021/11/17 03:17:50;;;;;;;;;;;5.90;99.90;;;;;;5021655;28;20095;-65
2021/11/17 03:20:41;;;;;;;62.30;27.10;;;5.90;99.90;;;;;;5010599;28;19921;-65
2021/11/17 03:23:46;;;;;;;74.10;30.45;;;5.90;99.90;;;;;;5022065;28;20069;-66
2021/11/17 03:26:28;;;;;;;70.70;29.52;;;5.90;99.90;;;;;;5026048;28;20470;-65
2021/11/17 03:29:05;;;;;;;71.00;29.23;;;5.90;99.90;;;;;;5000278;28;20050;-65
2021/11/17 03:31:43;;;;;;;79.15;30.77;;;5.90;99.90;;;;;;5029206;28;20116;-65
2021/11/17 03:34:51;;;;;;;66.32;28.48;;;5.90;99.90;;;;;;5018837;28;20041;-63
2021/11/17 03:37:47;;;;;;;66.68;28.88;;;5.90;99.90;;;;;;5022435;28;20507;-65
2021/11/17 03:40:31;;;;;;;73.35;30.50;;;6.00;99.90;;;;;;5020015;28;20037;-66
2021/11/17 03:43:08;;;;;;;68.30;29.25;;;5.90;99.90;;;;;;5023964;28;20072;-65
2021/11/17 03:45:57;;;;;;;73.72;28.98;;;6.00;99.90;;;;;;5023599;28;20168;-65
2021/11/17 03:48:37;;;;;;;78.00;31.42;;;6.00;99.90;;;;;;4987183;28;20056;-65
2021/11/17 03:51:19;;;;;;;74.07;32.10;;;6.00;99.90;;;;;;5026451;28;20063;-65
2021/11/17 03:54:13;;;;;;;79.65;32.00;;;6.00;99.90;;;;;;5017097;28;20124;-65
2021/11/17 03:56:54;;;;;;;84.47;31.98;;;6.00;99.90;;;;;;5026084;28;20037;-65
2021/11/17 03:59:54;;;;;;;76.15;31.23;;;6.10;99.90;;;;;;5019806;28;20064;-65
2021/11/17 04:02:31;;;;;;;81.35;32.80;;;6.10;99.90;;;;;;5027581;28;20056;-65
2021/11/17 04:05:28;;;;;;;79.30;31.80;;;6.10;99.90;;;;;;5020199;28;20073;-66
2021/11/17 04:08:20;;;;;;;84.03;32.83;;;6.10;99.90;;;;;;5025827;28;20569;-66
2021/11/17 04:11:05;;;;;;;79.65;32.33;;;6.10;99.90;;;;;;5019601;28;20037;-66
2021/11/17 04:14:01;;;;;;;83.82;34.47;;;6.10;99.90;;;;;;5023580;28;20245;-66
2021/11/17 04:16:36;;;;;;;85.07;34.78;;;6.10;99.90;;;;;;5004199;28;20135;-65
2021/11/17 04:19:04;;;;;;;99.90;39.42;;;6.10;99.90;;;;;;5007511;28;20053;-65
2021/11/17 04:21:39;;;;;;;90.95;37.03;;;6.10;99.90;;;;;;5003961;28;20050;-65
2021/11/17 04:24:37;;;;;;;88.50;37.58;;;6.10;99.90;;;;;;5029780;28;20091;-65
2021/11/17 04:27:25;;;;;;;93.43;38.13;;;6.20;99.90;;;;;;5006325;28;20045;-65
2021/11/17 04:29:58;;;;;;;91.72;37.08;;;6.20;99.90;;;;;;5029601;28;20502;-65
2021/11/17 04:32:42;;;;;;;112.38;38.92;;;6.20;99.90;;;;;;5020312;28;20493;-65
2021/11/17 04:35:45;;;;;;;105.93;39.50;;;6.20;99.90;;;;;;5011072;28;20425;-65
2021/11/17 04:38:38;;;;;;;91.22;36.88;;;6.20;99.90;;;;;;5010733;28;20278;-65
2021/11/17 04:41:22;;;;;;;100.65;40.35;;;6.30;99.90;;;;;;5020275;28;20114;-65
2021/11/17 04:44:06;;;;;;;100.00;37.90;;;6.30;99.90;;;;;;5026919;28;20137;-65
2021/11/17 04:46:44;;;;;;;100.60;39.90;;;6.20;99.90;;;;;;5021032;28;20040;-65
2021/11/17 04:49:12;;;;;;;104.97;40.08;;;6.30;99.90;;;;;;5028733;28;20113;-65
2021/11/17 04:52:04;;;;;;;110.53;39.95;;;6.30;99.90;;;;;;5003684;28;20129;-65
2021/11/17 04:54:39;;;;;;;105.03;37.70;;;6.30;99.90;;;;;;5009657;28;20077;-65
2021/11/17 04:57:13;;;;;;;97.45;39.92;;;6.30;99.90;;;;;;5020936;28;20080;-65
2021/11/17 04:59:55;;;;;;;100.40;38.83;;;6.30;99.90;;;;;;5024877;28;20100;-65
2021/11/17 05:02:45;;;;;;;94.95;37.88;;;6.30;99.90;;;;;;5018584;28;20116;-65
2021/11/17 05:05:35;;;;;;;97.53;39.38;;;6.30;99.90;;;;;;5028153;28;20067;-66
2021/11/17 05:08:31;;;;;;;95.22;37.92;;;6.30;99.90;;;;;;5021590;28;20037;-66
2021/11/17 05:11:00;;;;;;;93.00;36.50;;;6.30;99.90;;;;;;5011209;28;20037;-65
2021/11/17 05:13:28;;;;;;;94.63;36.15;;;6.30;99.90;;;;;;5019909;28;20037;-65
2021/11/17 05:16:05;;;;;;;86.88;36.33;;;6.40;99.90;;;;;;5026567;28;20536;-65
2021/11/17 05:18:48;;;;;;;85.15;35.05;;;6.40;99.90;;;;;;5024855;28;20509;-66
2021/11/17 05:21:57;;;;;;;87.45;35.65;;;6.40;99.90;;;;;;5028115;28;20390;-65
2021/11/17 05:24:42;;;;;;;95.45;36.38;;;6.40;99.90;;;;;;5011465;28;20398;-65
2021/11/17 05:27:36;;;;;;;96.07;37.67;;;6.40;99.90;;;;;;5001759;28;20133;-65
2021/11/17 05:30:46;;;;;;;90.50;36.58;;;6.40;99.90;;;;;;5010097;28;20077;-65
2021/11/17 05:33:18;;;;;;;98.05;37.90;;;6.40;99.90;;;;;;5018274;28;20572;-65
2021/11/17 05:36:05;;;;;;;103.75;39.97;;;6.40;99.90;;;;;;5024463;28;20038;-65
2021/11/17 05:38:45;;;;;;;104.13;38.30;;;6.40;99.90;;;;;;5021333;28;20482;-65
2021/11/17 05:41:20;;;;;;;112.53;40.25;;;6.50;99.90;;;;;;5025954;28;20052;-65
2021/11/17 05:43:58;;;;;;;96.70;37.40;;;6.50;99.90;;;;;;5019907;28;20120;-65
2021/11/17 05:46:35;;;;;;;110.93;40.85;;;6.50;99.90;;;;;;5023499;28;20401;-65
2021/11/17 05:49:13;;;;;;;98.60;38.75;;;6.50;99.90;;;;;;5022316;28;20077;-64
2021/11/17 05:52:33;;;;;;;101.28;39.53;;;6.50;99.90;;;;;;5026665;28;20104;-65
2021/11/17 05:55:18;;;;;;;104.05;38.60;;;6.50;99.90;;;;;;4946764;28;23235;-65
2021/11/17 05:57:49;;;;;;;116.20;41.40;;;6.50;99.90;;;;;;4954143;28;20205;-65
2021/11/17 06:00:21;;;;;;;117.90;40.42;;;6.60;99.90;;;;;;4994771;28;20172;-64
2021/11/17 06:03:06;;;;;;;103.00;39.85;;;6.60;99.90;;;;;;5002414;28;20049;-64
2021/11/17 06:05:31;;;;;;;;;;;6.60;99.90;;;;;;5021879;28;20424;-64
2021/11/17 06:07:57;;;;;;;108.13;40.47;;;6.60;99.90;;;;;;5009904;28;19917;-64
2021/11/17 06:10:46;;;;;;;103.90;40.08;;;6.60;99.90;;;;;;5020124;28;20076;-64
2021/11/17 06:13:14;;;;;;;102.25;40.40;;;6.60;99.90;;;;;;5023999;28;20065;-64
2021/11/17 06:15:41;;;;;;;101.35;40.38;;;6.60;99.90;;;;;;5024319;28;20029;-64
2021/11/17 06:18:10;;;;;;;111.82;42.08;;;6.60;99.90;;;;;;5025644;28;20069;-64
2021/11/17 06:20:38;;;;;;;115.07;42.72;;;6.60;99.90;;;;;;5019701;28;20072;-64
2021/11/17 06:23:08;;;;;;;110.65;41.45;;;6.70;99.90;;;;;;5023175;28;20040;-65
2021/11/17 06:25:37;;;;;;;115.03;42.50;;;6.70;99.90;;;;;;5022867;28;20056;-65
2021/11/17 06:28:04;;;;;;;108.18;42.13;;;6.70;99.90;;;;;;5024320;28;20405;-65
2021/11/17 06:30:41;;;;;;;105.07;42.00;;;6.70;99.90;;;;;;5002116;28;20053;-65
2021/11/17 06:33:08;;;;;;;101.85;41.30;;;6.70;99.90;;;;;;5008935;28;20041;-65
2021/11/17 06:35:35;;;;;;;115.93;43.80;;;6.70;99.90;;;;;;5018203;28;20049;-65
2021/11/17 06:38:03;;;;;;;116.97;42.63;;;6.80;99.90;;;;;;5022522;28;20072;-65
2021/11/17 06:40:29;;;;;;;102.90;41.45;;;6.80;99.90;;;;;;5018902;28;22286;-65
2021/11/17 06:42:58;;;;;;;102.10;41.72;;;6.80;99.90;;;;;;5025200;28;20080;-65
2021/11/17 06:45:33;;;;;;;99.20;40.60;;;6.80;99.90;;;;;;5000911;28;20046;-65
2021/11/17 06:48:00;;;;;;;112.50;43.90;;;6.80;99.90;;;;;;5021818;28;20033;-65
2021/11/17 06:50:26;;;;;;;97.43;42.00;;;6.80;99.90;;;;;;5005171;28;20045;-65
2021/11/17 06:52:52;;;;;;;110.13;40.85;;;6.90;99.90;;;;;;4996953;28;20073;-65
2021/11/17 06:55:19;;;;;;;106.28;41.45;;;6.80;99.90;;;;;;5033206;28;20045;-65
2021/11/17 06:57:45;;;;;;;94.03;39.45;;;6.80;99.90;;;;;;5016867;28;20034;-65
2021/11/17 07:00:14;;;;;;;103.25;42.50;;;6.90;99.90;;;;;;5024678;28;20041;-65
2021/11/17 07:02:40;;;;;;;105.82;41.70;;;6.90;99.90;;;;;;5028343;28;20080;-65
2021/11/17 07:05:07;;;;;;;90.25;40.33;;;6.90;99.90;;;;;;5031594;28;20346;-65
2021/11/17 07:07:33;;;;;;;99.40;42.08;;;6.90;99.90;;;;;;5022719;28;20046;-65
2021/11/17 07:09:59;;;;;;;98.75;40.78;;;6.90;99.90;;;;;;5033932;28;20191;-65
2021/11/17 07:12:25;;;;;;;102.60;42.28;;;6.90;99.90;;;;;;5024750;28;20119;-65
2021/11/17 07:14:51;;;;;;;100.05;41.40;;;6.90;99.90;;;;;;5006613;28;20749;-65
2021/11/17 07:17:17;;;;;;;98.90;41.83;;;6.90;99.90;;;;;;5024552;28;20038;-65
2021/11/17 07:19:43;;;;;;;99.25;43.20;;;7.00;99.90;;;;;;5028262;28;20457;-65
2021/11/17 07:22:09;;;;;;;106.10;41.88;;;7.00;99.90;;;;;;5026247;28;20044;-65
2021/11/17 07:24:36;;;;;;;98.90;40.25;;;7.00;99.90;;;;;;5028687;28;20172;-65
2021/11/17 07:27:02;;;;;;;103.82;42.78;;;7.00;99.90;;;;;;5024225;28;20034;-65
2021/11/17 07:29:28;;;;;;;108.45;42.53;;;7.00;99.90;;;;;;5029871;28;20037;-65
2021/11/17 07:31:55;;;;;;;101.47;42.05;;;7.00;99.90;;;;;;5025876;28;20128;-65
2021/11/17 07:34:20;;;;;;;93.88;41.15;;;7.00;99.90;;;;;;5024163;28;20036;-65
2021/11/17 07:36:47;;;;;;;101.85;42.03;;;6.90;99.90;;;;;;5032400;28;20029;-65
2021/11/17 07:39:14;;;;;;;100.60;39.65;;;7.00;99.90;;;;;;5026486;28;20056;-65
2021/11/17 07:41:46;;;;;;;104.13;42.00;;;7.00;99.90;;;;;;5030432;28;20061;-65
2021/11/17 07:44:16;;;;;;;104.93;41.85;;;7.10;99.90;;;;;;5024020;28;20143;-65
2021/11/17 07:46:45;;;;;;;103.47;41.58;;;7.10;99.90;;;;;;5031950;28;20496;-65
2021/11/17 07:49:16;;;;;;;96.22;40.05;;;7.10;99.90;;;;;;5023138;28;20099;-65
2021/11/17 07:51:43;;;;;;;102.07;40.30;;;7.10;99.90;;;;;;5031210;28;20029;-65
2021/11/17 07:54:10;;;;;;;99.05;41.35;;;7.10;99.90;;;;;;5025935;28;20117;-64
2021/11/17 07:56:37;;;;;;;102.60;41.17;;;7.20;99.90;;;;;;5031787;28;20091;-64
2021/11/17 07:59:06;;;;;;;109.90;42.78;;;7.20;99.90;;;;;;5025316;28;20045;-64
2021/11/17 08:01:32;;;;;;;104.30;40.75;;;7.20;99.90;;;;;;5012099;28;20232;-64
2021/11/17 08:03:58;;;;;;;107.15;41.60;;;7.20;99.90;;;;;;5025653;28;20041;-64
2021/11/17 08:06:27;;;;;;;110.00;43.95;;;7.30;99.90;;;;;;5008787;28;20509;-64
2021/11/17 08:08:53;;;;;;;96.93;39.90;;;7.30;99.90;;;;;;5022768;28;20103;-64
2021/11/17 08:11:20;;;;;;;105.03;42.08;;;7.30;99.90;;;;;;5027724;28;20052;-64
2021/11/17 08:13:46;;;;;;;101.03;41.72;;;7.30;99.90;;;;;;5023215;28;20037;-64
2021/11/17 08:16:13;;;;;;;109.45;43.15;;;7.30;99.90;;;;;;5025457;28;20083;-65
2021/11/17 08:18:40;;;;;;;102.97;41.53;;;7.40;99.90;;;;;;5027848;28;20115;-65
2021/11/17 08:21:07;;;;;;;96.43;41.70;;;7.40;99.90;;;;;;5025093;28;20037;-65
2021/11/17 08:23:32;;;;;;;100.45;41.45;;;7.50;99.90;;;;;;5027180;28;20095;-65
2021/11/17 08:25:58;;;;;;;103.63;41.42;;;7.50;99.90;;;;;;5019021;28;20034;-65
2021/11/17 08:28:24;;;;;;;103.18;41.10;;;7.50;99.90;;;;;;5029387;28;20034;-65
2021/11/17 08:30:50;;;;;;;99.28;41.58;;;7.50;99.90;;;;;;5023536;28;20041;-65
2021/11/17 08:33:18;;;;;;;95.03;40.22;;;7.50;99.90;;;;;;5025394;28;20037;-64
2021/11/17 08:35:45;;;;;;;96.28;41.00;;;7.60;99.90;;;;;;5019643;28;20142;-64
2021/11/17 08:38:14;;;;;;;99.47;39.83;;;7.70;99.90;;;;;;5031122;28;20025;-64
2021/11/17 08:40:44;;;;;;;100.50;41.55;;;7.60;99.90;;;;;;5020249;28;20528;-65
2021/11/17 08:43:11;;;;;;;101.70;42.63;;;7.70;99.90;;;;;;5027253;28;20417;-65
2021/11/17 08:45:39;;;;;;;104.82;40.75;;;7.70;99.90;;;;;;5003676;28;20049;-64
2021/11/17 08:48:06;;;;;;;104.20;41.75;;;7.70;99.90;;;;;;5007313;28;20057;-64
2021/11/17 08:50:33;;;;;;;95.15;40.22;;;7.80;99.90;;;;;;5021615;28;20128;-64
2021/11/17 08:53:01;;;;;;;96.85;41.65;;;7.90;99.90;;;;;;5010359;28;20085;-64
2021/11/17 08:55:29;;;;;;;98.75;42.72;;;7.90;99.90;;;;;;5019458;28;20076;-64
2021/11/17 08:57:57;;;;;;;88.18;39.22;;;7.90;99.90;;;;;;5015157;28;20509;-65
2021/11/17 09:00:24;;;;;;;102.10;41.38;;;7.90;99.90;;;;;;5018376;28;20110;-64
2021/11/17 09:02:52;;;;;;;90.18;40.65;;;7.90;99.90;;;;;;5021211;28;20120;-64
2021/11/17 09:05:21;;;;;;;90.10;39.88;;;8.00;99.90;;;;;;5027245;28;20060;-65
2021/11/17 09:07:48;;;;;;;96.85;40.08;;;8.00;99.90;;;;;;5002301;28;20070;-65
2021/11/17 09:10:29;;;;;;;96.18;41.40;;;8.00;99.90;;;;;;5020198;28;20043;-64
2021/11/17 09:12:55;;;;;;;89.82;40.10;;;8.10;99.90;;;;;;4995506;28;20060;-65
2021/11/17 09:15:24;;;;;;;91.90;41.72;;;8.10;99.90;;;;;;5028499;28;20033;-65
2021/11/17 09:17:50;;;;;;;101.35;41.13;;;8.20;99.90;;;;;;5019760;28;20434;-65
2021/11/17 09:20:17;;;;;;;95.13;38.97;;;8.10;99.90;;;;;;5027861;28;20037;-65
2021/11/17 09:22:44;;;;;;;108.18;39.60;;;8.20;99.90;;;;;;5021561;28;20037;-65
2021/11/17 09:25:10;;;;;;;101.22;38.70;;;8.10;99.90;;;;;;5029390;28;20033;-65
2021/11/17 09:27:38;;;;;;;95.03;37.70;;;8.10;99.90;;;;;;5019591;28;20052;-64
2021/11/17 09:30:05;;;;;;;101.75;38.13;;;8.10;99.90;;;;;;5009133;28;20401;-65
2021/11/17 09:32:32;;;;;;;86.10;35.22;;;8.10;99.90;;;;;;5002001;28;20077;-65
2021/11/17 09:35:12;;;;;;;108.25;34.60;;;8.10;99.90;;;;;;5024067;28;20398;-64
2021/11/17 09:37:40;;;;;;;85.60;33.00;;;8.20;99.90;;;;;;5021063;28;20061;-65
2021/11/17 09:40:08;;;;;;;94.43;33.22;;;8.20;99.90;;;;;;5026349;28;20037;-64
2021/11/17 09:42:35;;;;;;;102.55;35.00;;;8.20;99.90;;;;;;5020262;28;20057;-64
2021/11/17 09:45:03;;;;;;;111.85;37.35;;;8.30;99.90;;;;;;5003349;28;20065;-64
2021/11/17 09:47:31;;;;;;;98.57;36.00;;;8.40;99.90;;;;;;5019078;28;20159;-64
2021/11/17 09:50:14;;;;;;;97.63;36.13;;;8.40;99.90;;;;;;5026261;28;20434;-64
2021/11/17 09:53:08;;;;;;;100.07;34.53;;;8.40;99.90;;;;;;5023484;28;20037;-64
2021/11/17 09:55:41;;;;;;;107.47;37.08;;;8.50;99.90;;;;;;4978389;28;20200;-64
2021/11/17 09:58:22;;;;;;;98.90;35.90;;;8.50;99.90;;;;;;5016738;28;20069;-64
2021/11/17 10:01:01;;;;;;;97.85;36.15;;;8.60;99.90;;;;;;5022212;28;20094;-64
2021/11/17 10:03:48;;;;;;;87.75;34.58;;;8.60;99.90;;;;;;5018392;28;20111;-64
2021/11/17 10:14:49;;;;;;;104.68;35.35;;;8.60;99.90;;;;;;5019561;28;20051;-64
2021/11/17 10:17:46;;;;;;;97.95;34.72;;;8.60;99.90;;;;;;5023974;28;20033;-64
2021/11/17 10:20:34;;;;;;;100.38;35.33;;;8.60;99.90;;;;;;5020890;28;20116;-64
2021/11/17 10:23:06;;;;;;;103.90;35.78;;;8.60;99.90;;;;;;5025345;28;20406;-64
2021/11/17 10:26:04;;;;;;;107.57;37.40;;;8.70;99.90;;;;;;5022248;28;20099;-64
2021/11/17 10:29:01;;;;;;;96.18;36.13;;;8.80;99.90;;;;;;4980952;28;20111;-64
2021/11/17 10:31:45;;;;;;;91.32;33.95;;;8.80;99.90;;;;;;5020676;28;20052;-64
2021/11/17 10:34:22;;;;;;;93.35;34.33;;;8.90;99.90;;;;;;5021983;28;20395;-64
2021/11/17 10:37:22;;;;;;;95.60;34.05;;;8.90;99.90;;;;;;5023169;28;20506;-64
2021/11/17 10:39:49;;;;;;;80.88;32.78;;;9.00;99.90;;;;;;4983997;28;20045;-64
2021/11/17 10:42:29;;;;;;;85.30;33.85;;;9.10;99.90;;;;;;5024765;28;20549;-64
2021/11/17 10:45:00;;;;;;;87.15;33.05;;;9.20;99.90;;;;;;5015227;28;20521;-64
2021/11/17 10:47:28;;;;;;;76.75;32.28;;;9.30;99.90;;;;;;5027690;28;20655;-64
2021/11/17 10:50:29;;;;;;;69.50;29.83;;;9.40;99.90;;;;;;5019207;28;20050;-64
2021/11/17 10:53:02;;;;;;;70.55;28.38;;;9.40;99.90;;;;;;5025975;28;20034;-64
2021/11/17 10:55:39;;;;;;;79.30;30.33;;;9.40;99.90;;;;;;5011447;28;20073;-64
2021/11/17 10:58:09;;;;;;;64.32;27.73;;;9.40;99.90;;;;;;5023222;28;20132;-64
2021/11/17 11:00:39;;;;;;;71.93;28.42;;;9.40;99.90;;;;;;5022142;28;20402;-64
2021/11/17 11:03:08;;;;;;;68.30;29.10;;;9.50;99.90;;;;;;5008504;28;20107;-64
2021/11/17 11:05:48;;;;;;;69.40;28.48;;;9.50;99.90;;;;;;5020032;28;20041;-65
2021/11/17 11:08:21;;;;;;;52.60;24.33;;;9.50;99.90;;;;;;5022196;28;20056;-65
2021/11/17 11:10:50;;;;;;;53.55;24.23;;;9.60;99.90;;;;;;5014003;28;20500;-65
2021/11/17 11:13:32;;;;;;;55.28;24.95;;;9.70;99.90;;;;;;5025093;28;20037;-65
2021/11/17 11:16:13;;;;;;;47.30;22.33;;;9.80;99.90;;;;;;5002953;28;20054;-64
2021/11/17 11:18:41;;;;;;;47.92;21.88;;;9.90;99.90;;;;;;5025328;28;20037;-65
2021/11/17 11:21:09;;;;;;;44.42;21.08;;;10.00;99.90;;;;;;5005291;28;20122;-65
2021/11/17 11:23:53;;;;;;;46.13;21.20;;;10.00;99.90;;;;;;5024071;28;20047;-65
2021/11/17 11:26:20;;;;;;;45.03;20.70;;;10.00;99.90;;;;;;5019166;28;20041;-64
2021/11/17 11:28:46;;;;;;;47.88;21.23;;;10.00;99.90;;;;;;4983362;28;20054;-65
2021/11/17 11:31:12;;;;;;;37.83;19.55;;;10.00;99.90;;;;;;5026402;28;20038;-64
2021/11/17 11:33:54;;;;;;;41.90;20.83;;;10.00;99.90;;;;;;5019644;28;20037;-64
2021/11/17 11:36:22;;;;;;;40.88;18.67;;;10.00;99.90;;;;;;5026102;28;20164;-64
2021/11/17 11:39:11;;;;;;;40.03;18.48;;;10.10;99.90;;;;;;5012253;28;20038;-64
2021/11/17 11:41:42;;;;;;;38.20;16.90;;;10.10;99.90;;;;;;5027904;28;20346;-64
2021/11/17 11:44:20;;;;;;;35.42;16.67;;;10.20;99.90;;;;;;5030062;28;20158;-64
2021/11/17 11:46:55;;;;;;;32.75;14.32;;;10.20;99.90;;;;;;5030764;28;20077;-64
2021/11/17 11:49:38;;;;;;;34.08;13.63;;;10.20;99.90;;;;;;5025602;28;20120;-64
2021/11/17 11:52:06;;;;;;;30.10;12.82;;;10.20;99.90;;;;;;5026203;28;20042;-64
2021/11/17 11:54:58;;;;;;;29.88;12.02;;;10.20;99.90;;;;;;5029778;28;20545;-64
2021/11/17 11:57:41;;;;;;;33.42;12.85;;;10.30;99.90;;;;;;5019420;28;20587;-64
2021/11/17 12:00:29;;;;;;;32.20;10.98;;;10.30;99.90;;;;;;5025941;28;20103;-64
2021/11/17 12:03:10;;;;;;;26.73;10.93;;;10.40;99.90;;;;;;5006476;28;20056;-64
2021/11/17 12:05:41;;;;;;;22.95;7.28;;;10.40;99.90;;;;;;5028991;28;20569;-64
2021/11/17 12:08:13;;;;;;;23.60;6.25;;;10.40;99.90;;;;;;5006734;28;20068;-64
2021/11/17 12:11:04;;;;;;;26.08;5.20;;;10.40;99.90;;;;;;5027393;28;20037;-64
2021/11/17 12:13:37;;;;;;;26.55;5.00;;;10.50;99.90;;;;;;5011788;28;20486;-64
2021/11/17 12:16:12;;;;;;;22.30;3.80;;;10.50;99.90;;;;;;5011207;28;20049;-64
2021/11/17 12:18:54;;;;;;;16.38;3.92;;;10.50;99.90;;;;;;5008199;28;20054;-64
2021/11/17 12:21:21;;;;;;;20.95;3.92;;;10.60;99.90;;;;;;5024347;28;20044;-64
2021/11/17 12:24:06;;;;;;;25.17;3.78;;;10.60;99.90;;;;;;5020856;28;20065;-64
2021/11/17 12:26:34;;;;;;;21.27;3.60;;;10.70;99.90;;;;;;5027434;28;20044;-64
2021/11/17 12:29:03;;;;;;;19.73;3.13;;;10.70;99.90;;;;;;5005997;28;20457;-64
2021/11/17 12:31:34;;;;;;;18.77;3.10;;;10.80;99.90;;;;;;5029455;28;20041;-64
2021/11/17 12:34:31;;;;;;;14.32;2.85;;;10.80;99.90;;;;;;5024840;28;20045;-64
2021/11/17 12:37:18;;;;;;;18.63;3.75;;;10.80;99.90;;;;;;5022473;28;20072;-64
2021/11/17 12:40:10;;;;;;;22.15;3.30;;;10.90;99.90;;;;;;5005518;28;20041;-64
2021/11/17 12:42:36;;;;;;;18.25;3.33;;;10.90;99.90;;;;;;5023653;28;20104;-64
2021/11/17 12:45:37;;;;;;;22.20;3.97;;;10.80;99.90;;;;;;5024238;28;20128;-64
2021/11/17 12:48:22;;;;;;;20.38;2.97;;;10.80;99.90;;;;;;4943153;29;20035;-64
2021/11/17 12:50:53;;;;;;;16.88;2.55;;;10.80;99.90;;;;;;5013468;28;20129;-65
2021/11/17 12:53:48;;;;;;;20.05;3.25;;;10.70;99.90;;;;;;5019333;28;20034;-64
2021/11/17 12:56:14;;;;;;;;;;;10.70;99.90;;;;;;5019932;28;20075;-64
2021/11/17 12:59:02;;;;;;;13.45;3.05;;;10.70;99.90;;;;;;5030067;28;19983;-65
2021/11/17 13:01:28;;;;;;;21.58;3.28;;;10.60;99.90;;;;;;5021743;28;20121;-64
2021/11/17 13:03:56;;;;;;;15.45;2.20;;;10.60;99.90;;;;;;5027950;28;20541;-64
2021/11/17 13:06:30;;;;;;;18.10;2.83;;;10.60;99.90;;;;;;5020801;28;20096;-64
2021/11/17 13:09:10;;;;;;;15.88;2.90;;;10.50;99.90;;;;;;5030892;28;20099;-64
2021/11/17 13:12:06;;;;;;;14.57;2.67;;;10.40;99.90;;;;;;5021622;28;20037;-64
2021/11/17 13:14:35;;;;;;;15.50;2.42;;;10.40;99.90;;;;;;5009588;28;20056;-65
2021/11/17 13:17:15;;;;;;;13.77;2.03;;;10.40;99.90;;;;;;5016394;28;20041;-65
2021/11/17 13:19:45;;;;;;;12.25;2.17;;;10.30;99.90;;;;;;5026820;28;20085;-65
2021/11/17 13:22:29;;;;;;;14.73;2.13;;;10.30;99.90;;;;;;5017341;28;20498;-64
2021/11/17 13:25:10;;;;;;;16.20;2.10;;;10.20;99.90;;;;;;5027800;28;20047;-64
2021/11/17 13:27:44;;;;;;;12.43;2.10;;;10.20;99.90;;;;;;5018058;28;20049;-64
2021/11/17 13:30:39;;;;;;;12.27;2.10;;;10.30;99.90;;;;;;5026241;28;20057;-64
2021/11/17 13:33:21;;;;;;;10.25;2.03;;;10.50;99.90;;;;;;5022327;28;20033;-64
2021/11/17 13:36:06;;;;;;;14.68;2.38;;;10.60;99.90;;;;;;5023836;28;20034;-64
2021/11/17 13:38:34;;;;;;;10.68;1.83;;;10.70;99.90;;;;;;5023836;28;20060;-65
2021/11/17 13:41:04;;;;;;;12.68;1.98;;;10.60;99.90;;;;;;5007534;28;20053;-64
2021/11/17 13:43:31;;;;;;;13.80;2.08;;;10.50;99.90;;;;;;5023575;28;20076;-64
2021/11/17 13:46:01;;;;;;;10.73;1.92;;;10.40;99.90;;;;;;5027134;28;20073;-64
2021/11/17 13:48:31;;;;;;;12.90;1.92;;;10.30;99.90;;;;;;5022560;28;20115;-64
2021/11/17 13:50:57;;;;;;;14.82;2.25;;;10.20;99.90;;;;;;5027128;28;20113;-65
2021/11/17 13:53:24;;;;;;;14.40;1.95;;;10.10;99.90;;;;;;5022111;28;20269;-64
2021/11/17 13:55:56;;;;;;;9.00;2.28;;;10.10;99.90;;;;;;5025473;28;20040;-65
2021/11/17 13:58:22;;;;;;;8.52;1.60;;;10.00;99.90;;;;;;5017746;28;20095;-65
2021/11/17 14:00:48;;;;;;;10.45;1.90;;;10.00;99.90;;;;;;5009206;28;20434;-65
2021/11/17 14:03:14;;;;;;;12.77;1.95;;;10.00;99.90;;;;;;5019983;28;20087;-65
2021/11/17 14:05:43;;;;;;;14.40;1.95;;;10.00;99.90;;;;;;5023930;28;20045;-65
2021/11/17 14:08:10;;;;;;;13.20;2.20;;;10.10;99.90;;;;;;5002605;28;20046;-65
2021/11/17 14:10:36;;;;;;;12.27;2.22;;;10.10;99.90;;;;;;5010828;28;20038;-65
2021/11/17 14:13:03;;;;;;;8.63;2.20;;;10.20;99.90;;;;;;5021506;28;20033;-65
2021/11/17 14:15:29;;;;;;;11.38;2.17;;;10.30;99.90;;;;;;5024105;28;20040;-65
2021/11/17 14:17:55;;;;;;;14.23;2.42;;;10.30;99.90;;;;;;5019967;28;20385;-65
2021/11/17 14:20:21;;;;;;;11.10;2.08;;;10.30;99.90;;;;;;5025923;28;20152;-65
2021/11/17 14:22:47;;;;;;;12.15;2.30;;;10.40;99.90;;;;;;5024132;28;20112;-65
2021/11/17 14:25:17;;;;;;;14.00;2.00;;;10.40;99.90;;;;;;5020314;28;20396;-65
2021/11/17 14:27:46;;;;;;;14.23;2.40;;;10.40;99.90;;;;;;5026837;28;20060;-65
2021/11/17 14:30:17;;;;;;;10.65;2.38;;;10.40;99.90;;;;;;5003671;28;20050;-65
2021/11/17 14:32:46;;;;;;;12.35;1.75;;;10.40;99.90;;;;;;5004718;28;20039;-65
2021/11/17 14:35:13;;;;;;;12.18;2.15;;;10.40;99.90;;;;;;5015962;28;20072;-65
2021/11/17 14:37:41;;;;;;;10.10;2.22;;;10.40;99.90;;;;;;5018903;28;20041;-65
2021/11/17 14:40:08;;;;;;;12.32;2.05;;;10.40;99.90;;;;;;5001667;28;20136;-65
2021/11/17 14:42:34;;;;;;;10.20;1.50;;;10.30;99.90;;;;;;5019897;28;20066;-64
2021/11/17 14:44:59;;;;;;;11.93;1.90;;;10.30;99.90;;;;;;5021599;28;20335;-65
2021/11/17 14:47:25;;;;;;;8.88;1.63;;;10.10;99.90;;;;;;5024935;28;20044;-65
2021/11/17 14:49:51;;;;;;;10.23;1.25;;;10.00;99.90;;;;;;5020911;28;20042;-65
2021/11/17 14:52:20;;;;;;;4.97;0.60;;;9.80;99.90;;;;;;5022911;28;20038;-65
2021/11/17 14:54:46;;;;;;;12.18;1.05;;;9.70;99.90;;;;;;5021857;28;20460;-65
2021/11/17 14:57:11;;;;;;;7.28;1.20;;;9.50;99.90;;;;;;5004159;28;20050;-65
2021/11/17 14:59:37;;;;;;;7.93;1.00;;;9.40;99.90;;;;;;5016495;28;20396;-65
2021/11/17 15:02:06;;;;;;;9.30;1.30;;;9.30;99.90;;;;;;4999466;28;20556;-65
2021/11/17 15:04:35;;;;;;;7.07;0.80;;;9.20;99.90;;;;;;5023942;28;20040;-65
2021/11/17 15:07:03;;;;;;;9.07;1.25;;;9.10;99.90;;;;;;5020913;28;20033;-65
2021/11/17 15:09:29;;;;;;;8.65;1.20;;;9.00;99.90;;;;;;5026867;28;20033;-65
2021/11/17 15:12:01;;;;;;;8.90;1.27;;;8.90;99.90;;;;;;5020053;28;20942;-65
2021/11/17 15:14:29;;;;;;;6.70;1.30;;;8.70;99.90;;;;;;5023127;28;20033;-65
2021/11/17 15:16:56;;;;;;;9.30;1.77;;;8.70;99.90;;;;;;5023769;28;20056;-65
2021/11/17 15:19:22;;;;;;;11.77;1.30;;;8.60;99.90;;;;;;5029021;28;20512;-65
2021/11/17 15:21:50;;;;;;;8.98;1.42;;;8.50;99.90;;;;;;5025775;28;20037;-65
2021/11/17 15:24:17;;;;;;;6.75;1.08;;;8.30;99.90;;;;;;5027259;28;20134;-65
2021/11/17 15:27:10;;;;;;;7.70;1.10;;;8.20;99.90;;;;;;5019466;28;20061;-65
2021/11/17 15:29:39;;;;;;;11.00;1.23;;;8.20;99.90;;;;;;5029777;28;20265;-65
2021/11/17 15:32:06;;;;;;;9.00;1.38;;;8.00;99.90;;;;;;5020296;28;20033;-65
2021/11/17 15:34:32;;;;;;;6.88;1.33;;;8.00;99.90;;;;;;5027186;28;20127;-65
2021/11/17 15:36:57;;;;;;;10.82;1.58;;;7.90;99.90;;;;;;5004639;28;20026;-65
2021/11/17 15:39:23;;;;;;;8.60;1.38;;;7.80;99.90;;;;;;5026644;28;20434;-65
2021/11/17 15:41:49;;;;;;;11.38;1.70;;;7.70;99.90;;;;;;5020204;28;20076;-65
2021/11/17 15:44:15;;;;;;;9.05;1.23;;;7.60;99.90;;;;;;5027103;28;20058;-65
2021/11/17 15:46:59;;;;;;;8.73;1.33;;;7.60;99.90;;;;;;5025699;28;20040;-65
2021/11/17 15:49:26;;;;;;;8.52;1.40;;;7.50;99.90;;;;;;5031246;28;20482;-65
2021/11/17 15:51:52;;;;;;;7.72;1.15;;;7.40;99.90;;;;;;5019149;28;20049;-66